sensor_id;sensor_type;location;lat;lon;timestamp;pressure;altitude;pressure_sealevel;temperature;humidity
15694;BME280;7947;48.834;9.132;2022-09-09T00:03:00;97828.50;;;16.51;75.47
15694;BME280;7947;48.834;9.132;2022-09-09T00:06:11;97831.88;;;16.57;75.52
15694;BME280;7947;48.834;9.132;2022-09-09T00:09:24;97832.66;;;16.57;75.12
15694;BME280;7947;48.834;9.132;2022-09-09T00:12:37;97821.66;;;16.54;75.09
15694;BME280;7947;48.834;9.132;2022-09-09T00:16:01;97824.38;;;16.54;75.43
15694;BME280;7947;48.834;9.132;2022-09-09T00:19:10;97825.50;;;16.53;75.13
15694;BME280;7947;48.834;9.132;2022-09-09T00:22:19;97820.09;;;16.53;75.28
15694;BME280;7947;48.834;9.132;2022-09-09T00:25:28;97823.09;;;16.60;74.91
15694;BME280;7947;48.834;9.132;2022-09-09T00:28:39;97822.91;;;16.65;74.82
15694;BME280;7947;48.834;9.132;2022-09-09T00:31:44;97811.94;;;16.61;74.47
15694;BME280;7947;48.834;9.132;2022-09-09T00:34:49;97811.78;;;16.66;74.41
15694;BME280;7947;48.834;9.132;2022-09-09T00:37:55;97810.50;;;16.64;74.86
15694;BME280;7947;48.834;9.132;2022-09-09T00:41:06;97813.84;;;16.69;74.22
15694;BME280;7947;48.834;9.132;2022-09-09T00:44:31;97809.69;;;16.72;74.69
15694;BME280;7947;48.834;9.132;2022-09-09T00:47:44;97814.13;;;16.76;74.07
15694;BME280;7947;48.834;9.132;2022-09-09T00:50:50;97816.69;;;16.81;73.98
15694;BME280;7947;48.834;9.132;2022-09-09T00:54:12;97802.81;;;16.83;74.28
15694;BME280;7947;48.834;9.132;2022-09-09T00:57:26;97817.50;;;16.82;74.24
15694;BME280;7947;48.834;9.132;2022-09-09T01:00:33;97817.97;;;16.84;74.56
15694;BME280;7947;48.834;9.132;2022-09-09T01:03:42;97819.72;;;16.80;74.01
15694;BME280;7947;48.834;9.132;2022-09-09T01:06:54;97823.06;;;16.77;74.13
15694;BME280;7947;48.834;9.132;2022-09-09T01:10:04;97814.47;;;16.83;74.13
15694;BME280;7947;48.834;9.132;2022-09-09T01:13:16;97801.72;;;16.84;73.36
15694;BME280;7947;48.834;9.132;2022-09-09T01:16:22;97809.84;;;16.84;73.48
15694;BME280;7947;48.834;9.132;2022-09-09T01:19:37;97801.53;;;16.89;73.72
15694;BME280;7947;48.834;9.132;2022-09-09T01:22:50;97803.78;;;16.87;73.67
15694;BME280;7947;48.834;9.132;2022-09-09T01:26:17;97815.06;;;16.89;73.11
15694;BME280;7947;48.834;9.132;2022-09-09T01:29:21;97821.59;;;16.88;73.17
15694;BME280;7947;48.834;9.132;2022-09-09T01:32:40;97824.00;;;16.89;74.34
15694;BME280;7947;48.834;9.132;2022-09-09T01:35:48;97833.38;;;16.92;74.33
15694;BME280;7947;48.834;9.132;2022-09-09T01:38:55;97834.97;;;16.93;74.55
15694;BME280;7947;48.834;9.132;2022-09-09T01:42:01;97834.19;;;16.92;74.87
15694;BME280;7947;48.834;9.132;2022-09-09T01:45:05;97832.28;;;16.93;75.18
15694;BME280;7947;48.834;9.132;2022-09-09T01:48:08;97827.97;;;16.92;74.88
15694;BME280;7947;48.834;9.132;2022-09-09T01:51:11;97824.16;;;16.93;74.67
15694;BME280;7947;48.834;9.132;2022-09-09T01:54:14;97829.84;;;17.00;74.15
15694;BME280;7947;48.834;9.132;2022-09-09T01:57:21;97838.16;;;16.95;74.07
15694;BME280;7947;48.834;9.132;2022-09-09T02:00:26;97836.56;;;16.94;74.68
15694;BME280;7947;48.834;9.132;2022-09-09T02:03:31;97819.84;;;16.92;74.28
15694;BME280;7947;48.834;9.132;2022-09-09T02:06:36;97809.94;;;16.96;73.01
15694;BME280;7947;48.834;9.132;2022-09-09T02:09:40;97806.59;;;16.99;71.76
15694;BME280;7947;48.834;9.132;2022-09-09T02:12:51;97819.16;;;17.03;70.83
15694;BME280;7947;48.834;9.132;2022-09-09T02:16:00;97837.97;;;17.08;71.49
15694;BME280;7947;48.834;9.132;2022-09-09T02:19:08;97824.75;;;17.07;71.62
15694;BME280;7947;48.834;9.132;2022-09-09T02:22:16;97831.88;;;17.11;70.29
15694;BME280;7947;48.834;9.132;2022-09-09T02:25:22;97824.38;;;17.17;69.71
15694;BME280;7947;48.834;9.132;2022-09-09T02:28:29;97820.69;;;17.22;69.38
15694;BME280;7947;48.834;9.132;2022-09-09T02:31:35;97831.69;;;17.25;69.18
15694;BME280;7947;48.834;9.132;2022-09-09T02:34:41;97834.13;;;17.18;69.28
15694;BME280;7947;48.834;9.132;2022-09-09T02:37:45;97834.59;;;17.20;69.68
15694;BME280;7947;48.834;9.132;2022-09-09T02:40:48;97830.59;;;17.17;70.18
15694;BME280;7947;48.834;9.132;2022-09-09T02:43:52;97836.69;;;17.14;70.10
15694;BME280;7947;48.834;9.132;2022-09-09T02:47:21;97831.59;;;17.04;70.34
15694;BME280;7947;48.834;9.132;2022-09-09T02:50:33;97822.72;;;16.95;71.19
15694;BME280;7947;48.834;9.132;2022-09-09T02:53:40;97817.44;;;16.90;71.54
15694;BME280;7947;48.834;9.132;2022-09-09T02:56:49;97816.84;;;16.85;71.67
15694;BME280;7947;48.834;9.132;2022-09-09T02:59:57;97813.50;;;16.79;71.92
15694;BME280;7947;48.834;9.132;2022-09-09T03:03:00;97805.88;;;16.73;72.38
15694;BME280;7947;48.834;9.132;2022-09-09T03:06:03;97800.16;;;16.66;72.72
15694;BME280;7947;48.834;9.132;2022-09-09T03:09:07;97800.31;;;16.61;73.18
15694;BME280;7947;48.834;9.132;2022-09-09T03:12:11;97796.34;;;16.50;73.54
15694;BME280;7947;48.834;9.132;2022-09-09T03:15:16;97798.88;;;16.46;73.73
15694;BME280;7947;48.834;9.132;2022-09-09T03:18:19;97802.53;;;16.42;73.86
15694;BME280;7947;48.834;9.132;2022-09-09T03:21:21;97798.72;;;16.43;74.27
15694;BME280;7947;48.834;9.132;2022-09-09T03:24:24;97800.47;;;16.47;73.98
15694;BME280;7947;48.834;9.132;2022-09-09T03:27:27;97806.53;;;16.44;73.83
15694;BME280;7947;48.834;9.132;2022-09-09T03:30:31;97810.97;;;16.40;73.87
15694;BME280;7947;48.834;9.132;2022-09-09T03:33:34;97814.47;;;16.32;73.87
15694;BME280;7947;48.834;9.132;2022-09-09T03:36:38;97807.34;;;16.27;74.18
15694;BME280;7947;48.834;9.132;2022-09-09T03:39:42;97811.63;;;16.28;74.42
15694;BME280;7947;48.834;9.132;2022-09-09T03:42:45;97811.78;;;16.23;74.84
15694;BME280;7947;48.834;9.132;2022-09-09T03:45:50;97813.22;;;16.21;74.64
15694;BME280;7947;48.834;9.132;2022-09-09T03:48:53;97823.72;;;16.22;74.64
15694;BME280;7947;48.834;9.132;2022-09-09T03:51:56;97811.78;;;16.23;74.50
15694;BME280;7947;48.834;9.132;2022-09-09T03:55:00;97808.28;;;16.32;73.93
15694;BME280;7947;48.834;9.132;2022-09-09T03:58:03;97812.25;;;16.43;73.34
15694;BME280;7947;48.834;9.132;2022-09-09T04:01:09;97811.78;;;16.49;72.86
15694;BME280;7947;48.834;9.132;2022-09-09T04:04:12;97807.19;;;16.58;72.27
15694;BME280;7947;48.834;9.132;2022-09-09T04:07:15;97809.38;;;16.65;72.33
15694;BME280;7947;48.834;9.132;2022-09-09T04:10:17;97808.91;;;16.71;72.57
15694;BME280;7947;48.834;9.132;2022-09-09T04:13:20;97814.94;;;16.77;72.89
15694;BME280;7947;48.834;9.132;2022-09-09T04:16:25;97813.50;;;16.79;72.15
15694;BME280;7947;48.834;9.132;2022-09-09T04:19:28;97816.84;;;16.85;72.56
15694;BME280;7947;48.834;9.132;2022-09-09T04:22:31;97820.50;;;16.89;71.92
15694;BME280;7947;48.834;9.132;2022-09-09T04:25:34;97822.88;;;16.90;71.40
15694;BME280;7947;48.834;9.132;2022-09-09T04:28:37;97821.59;;;16.96;71.07
15694;BME280;7947;48.834;9.132;2022-09-09T04:31:41;97823.34;;;17.01;70.73
15694;BME280;7947;48.834;9.132;2022-09-09T04:34:44;97822.69;;;17.04;70.21
15694;BME280;7947;48.834;9.132;2022-09-09T04:37:49;97828.09;;;17.04;70.49
15694;BME280;7947;48.834;9.132;2022-09-09T04:40:52;97833.50;;;17.04;71.49
15694;BME280;7947;48.834;9.132;2022-09-09T04:43:55;97830.31;;;17.02;70.68
15694;BME280;7947;48.834;9.132;2022-09-09T04:46:59;97834.31;;;17.04;71.24
15694;BME280;7947;48.834;9.132;2022-09-09T04:50:02;97827.94;;;17.09;71.42
15694;BME280;7947;48.834;9.132;2022-09-09T04:53:05;97835.41;;;17.12;71.69
15694;BME280;7947;48.834;9.132;2022-09-09T04:56:09;97837.16;;;17.08;71.09
15694;BME280;7947;48.834;9.132;2022-09-09T04:59:12;97829.38;;;17.06;71.23
15694;BME280;7947;48.834;9.132;2022-09-09T05:02:17;97830.47;;;17.14;69.94
15694;BME280;7947;48.834;9.132;2022-09-09T05:05:23;97841.59;;;17.21;69.99
15694;BME280;7947;48.834;9.132;2022-09-09T05:08:28;97848.75;;;17.26;68.81
15694;BME280;7947;48.834;9.132;2022-09-09T05:11:34;97848.56;;;17.31;68.62
15694;BME280;7947;48.834;9.132;2022-09-09T05:14:40;97850.13;;;17.40;67.80
15694;BME280;7947;48.834;9.132;2022-09-09T05:17:46;97844.88;;;17.44;68.07
15694;BME280;7947;48.834;9.132;2022-09-09T05:20:52;97859.19;;;17.44;68.42
15694;BME280;7947;48.834;9.132;2022-09-09T05:23:57;97843.72;;;17.45;68.86
15694;BME280;7947;48.834;9.132;2022-09-09T05:27:03;97848.50;;;17.48;69.45
15694;BME280;7947;48.834;9.132;2022-09-09T05:30:09;97847.53;;;17.52;68.71
15694;BME280;7947;48.834;9.132;2022-09-09T05:33:17;97856.63;;;17.56;68.55
15694;BME280;7947;48.834;9.132;2022-09-09T05:36:23;97860.28;;;17.60;68.32
15694;BME280;7947;48.834;9.132;2022-09-09T05:39:30;97857.22;;;17.62;68.56
15694;BME280;7947;48.834;9.132;2022-09-09T05:42:35;97856.41;;;17.70;67.65
15694;BME280;7947;48.834;9.132;2022-09-09T05:45:41;97865.59;;;17.77;67.24
15694;BME280;7947;48.834;9.132;2022-09-09T05:48:48;97861.66;;;17.75;67.32
15694;BME280;7947;48.834;9.132;2022-09-09T05:51:54;97859.38;;;17.77;66.67
15694;BME280;7947;48.834;9.132;2022-09-09T05:54:59;97861.91;;;17.82;66.73
15694;BME280;7947;48.834;9.132;2022-09-09T05:58:04;97865.56;;;17.86;66.74
15694;BME280;7947;48.834;9.132;2022-09-09T06:01:10;97866.16;;;17.91;66.69
15694;BME280;7947;48.834;9.132;2022-09-09T06:04:17;97869.34;;;17.93;66.46
15694;BME280;7947;48.834;9.132;2022-09-09T06:07:25;97869.34;;;17.93;66.82
15694;BME280;7947;48.834;9.132;2022-09-09T06:10:31;97869.63;;;18.00;67.39
15694;BME280;7947;48.834;9.132;2022-09-09T06:13:37;97871.03;;;18.07;66.22
15694;BME280;7947;48.834;9.132;2022-09-09T06:16:43;97866.53;;;18.11;66.56
15694;BME280;7947;48.834;9.132;2022-09-09T06:19:49;97872.28;;;18.09;65.85
15694;BME280;7947;48.834;9.132;2022-09-09T06:22:55;97866.66;;;18.14;66.54
15694;BME280;7947;48.834;9.132;2022-09-09T06:26:05;97872.69;;;18.20;66.59
15694;BME280;7947;48.834;9.132;2022-09-09T06:29:10;97877.13;;;18.24;65.45
15694;BME280;7947;48.834;9.132;2022-09-09T06:32:16;97879.97;;;18.28;65.42
15694;BME280;7947;48.834;9.132;2022-09-09T06:35:22;97877.94;;;18.25;65.47
15694;BME280;7947;48.834;9.132;2022-09-09T06:38:28;97883.84;;;18.27;65.52
15694;BME280;7947;48.834;9.132;2022-09-09T06:41:35;97882.81;;;18.31;65.78
15694;BME280;7947;48.834;9.132;2022-09-09T06:44:41;97886.00;;;18.33;65.26
15694;BME280;7947;48.834;9.132;2022-09-09T06:47:46;97885.81;;;18.38;65.78
15694;BME280;7947;48.834;9.132;2022-09-09T06:51:02;97883.91;;;18.39;65.89
15694;BME280;7947;48.834;9.132;2022-09-09T06:54:07;97881.34;;;18.42;66.51
15694;BME280;7947;48.834;9.132;2022-09-09T06:57:12;97885.00;;;18.46;66.52
15694;BME280;7947;48.834;9.132;2022-09-09T07:00:37;97878.56;;;18.51;66.18
15694;BME280;7947;48.834;9.132;2022-09-09T07:03:45;97878.69;;;18.54;66.37
15694;BME280;7947;48.834;9.132;2022-09-09T07:06:52;97879.28;;;18.60;66.05
15694;BME280;7947;48.834;9.132;2022-09-09T07:09:57;97886.97;;;18.58;66.52
15694;BME280;7947;48.834;9.132;2022-09-09T07:13:02;97874.16;;;18.58;66.30
15694;BME280;7947;48.834;9.132;2022-09-09T07:16:09;97887.69;;;18.67;67.42
15694;BME280;7947;48.834;9.132;2022-09-09T07:19:14;97888.63;;;18.71;67.10
15694;BME280;7947;48.834;9.132;2022-09-09T07:22:21;97895.31;;;18.73;67.12
15694;BME280;7947;48.834;9.132;2022-09-09T07:25:26;97893.78;;;18.84;66.58
15694;BME280;7947;48.834;9.132;2022-09-09T07:28:32;97890.97;;;18.93;66.64
15694;BME280;7947;48.834;9.132;2022-09-09T07:31:39;97889.63;;;18.99;66.50
15694;BME280;7947;48.834;9.132;2022-09-09T07:34:44;97881.47;;;18.99;66.29
15694;BME280;7947;48.834;9.132;2022-09-09T07:37:51;97883.56;;;19.14;65.25
15694;BME280;7947;48.834;9.132;2022-09-09T07:41:03;97886.00;;;19.28;65.29
15694;BME280;7947;48.834;9.132;2022-09-09T07:44:10;97880.94;;;19.38;65.11
15694;BME280;7947;48.834;9.132;2022-09-09T07:47:16;97881.28;;;19.49;65.33
15694;BME280;7947;48.834;9.132;2022-09-09T07:50:20;97887.41;;;19.58;64.47
15694;BME280;7947;48.834;9.132;2022-09-09T07:53:28;97888.34;;;19.62;64.06
15694;BME280;7947;48.834;9.132;2022-09-09T07:56:34;97891.97;;;19.66;64.08
15694;BME280;7947;48.834;9.132;2022-09-09T07:59:41;97888.44;;;19.77;64.73
15694;BME280;7947;48.834;9.132;2022-09-09T08:02:48;97876.63;;;19.98;63.79
15694;BME280;7947;48.834;9.132;2022-09-09T08:05:53;97873.44;;;20.08;62.06
15694;BME280;7947;48.834;9.132;2022-09-09T08:09:06;97885.94;;;20.09;62.07
15694;BME280;7947;48.834;9.132;2022-09-09T08:12:12;97893.78;;;20.22;61.53
15694;BME280;7947;48.834;9.132;2022-09-09T08:15:17;97888.25;;;20.58;60.72
15694;BME280;7947;48.834;9.132;2022-09-09T08:18:22;97887.28;;;21.06;59.08
15694;BME280;7947;48.834;9.132;2022-09-09T08:21:29;97893.63;;;21.53;57.25
15694;BME280;7947;48.834;9.132;2022-09-09T08:24:36;97899.63;;;21.90;56.19
15694;BME280;7947;48.834;9.132;2022-09-09T08:27:43;97912.00;;;22.19;55.28
15694;BME280;7947;48.834;9.132;2022-09-09T08:30:48;97918.22;;;22.51;54.27
15694;BME280;7947;48.834;9.132;2022-09-09T08:33:57;97912.28;;;22.64;52.61
15694;BME280;7947;48.834;9.132;2022-09-09T08:37:03;97902.00;;;22.42;53.05
15694;BME280;7947;48.834;9.132;2022-09-09T08:40:17;97897.81;;;22.64;52.79
15694;BME280;7947;48.834;9.132;2022-09-09T08:43:26;97896.38;;;22.89;52.24
15694;BME280;7947;48.834;9.132;2022-09-09T08:46:41;97882.59;;;23.23;51.13
15694;BME280;7947;48.834;9.132;2022-09-09T08:50:04;97887.44;;;23.53;50.98
15694;BME280;7947;48.834;9.132;2022-09-09T08:53:16;97893.53;;;23.88;50.35
15694;BME280;7947;48.834;9.132;2022-09-09T08:56:25;97883.25;;;24.04;47.27
15694;BME280;7947;48.834;9.132;2022-09-09T08:59:32;97880.50;;;24.30;46.68
15694;BME280;7947;48.834;9.132;2022-09-09T09:02:44;97885.31;;;24.37;44.55
15694;BME280;7947;48.834;9.132;2022-09-09T09:05:59;97894.28;;;24.37;45.09
15694;BME280;7947;48.834;9.132;2022-09-09T09:09:08;97896.19;;;24.33;45.14
15694;BME280;7947;48.834;9.132;2022-09-09T09:12:19;97906.06;;;23.89;45.94
15694;BME280;7947;48.834;9.132;2022-09-09T09:15:31;97900.66;;;23.70;46.87
15694;BME280;7947;48.834;9.132;2022-09-09T09:18:39;97906.72;;;23.37;47.74
15694;BME280;7947;48.834;9.132;2022-09-09T09:21:49;97902.84;;;23.00;48.21
15694;BME280;7947;48.834;9.132;2022-09-09T09:24:58;97904.00;;;22.61;48.97
15694;BME280;7947;48.834;9.132;2022-09-09T09:28:15;97895.88;;;22.29;49.43
15694;BME280;7947;48.834;9.132;2022-09-09T09:31:21;97895.81;;;22.10;50.24
15694;BME280;7947;48.834;9.132;2022-09-09T09:34:29;97898.13;;;21.93;51.75
15694;BME280;7947;48.834;9.132;2022-09-09T09:37:36;97898.56;;;21.95;51.74
15694;BME280;7947;48.834;9.132;2022-09-09T09:41:02;97900.66;;;22.17;52.83
15694;BME280;7947;48.834;9.132;2022-09-09T09:44:23;97898.72;;;22.52;52.91
15694;BME280;7947;48.834;9.132;2022-09-09T09:47:29;97892.72;;;23.00;51.93
15694;BME280;7947;48.834;9.132;2022-09-09T09:50:40;97885.19;;;23.36;49.15
15694;BME280;7947;48.834;9.132;2022-09-09T09:53:51;97882.59;;;23.65;44.72
15694;BME280;7947;48.834;9.132;2022-09-09T09:57:06;97883.84;;;23.94;44.49
15694;BME280;7947;48.834;9.132;2022-09-09T10:00:16;97866.84;;;23.85;43.72
15694;BME280;7947;48.834;9.132;2022-09-09T10:03:26;97867.78;;;23.92;42.32
15694;BME280;7947;48.834;9.132;2022-09-09T10:06:32;97863.84;;;24.16;43.42
15694;BME280;7947;48.834;9.132;2022-09-09T10:09:38;97862.66;;;24.43;42.05
15694;BME280;7947;48.834;9.132;2022-09-09T10:12:53;97855.91;;;24.67;41.79
15694;BME280;7947;48.834;9.132;2022-09-09T10:16:13;97863.50;;;24.73;41.12
15694;BME280;7947;48.834;9.132;2022-09-09T10:19:29;97852.63;;;24.84;41.51
15694;BME280;7947;48.834;9.132;2022-09-09T10:22:35;97846.88;;;24.96;41.34
15694;BME280;7947;48.834;9.132;2022-09-09T10:25:58;97843.72;;;24.94;41.62
15694;BME280;7947;48.834;9.132;2022-09-09T10:29:34;97847.16;;;25.21;42.33
15694;BME280;7947;48.834;9.132;2022-09-09T10:32:52;97848.78;;;25.29;41.09
15694;BME280;7947;48.834;9.132;2022-09-09T10:36:08;97842.78;;;25.53;41.46
15694;BME280;7947;48.834;9.132;2022-09-09T10:39:30;97846.03;;;25.65;40.60
15694;BME280;7947;48.834;9.132;2022-09-09T10:42:44;97843.53;;;25.50;40.41
15694;BME280;7947;48.834;9.132;2022-09-09T10:45:55;97845.88;;;25.48;40.42
15694;BME280;7947;48.834;9.132;2022-09-09T10:49:16;97838.81;;;25.10;39.71
15694;BME280;7947;48.834;9.132;2022-09-09T10:52:29;97837.25;;;24.76;41.97
15694;BME280;7947;48.834;9.132;2022-09-09T10:55:38;97843.81;;;24.68;42.27
15694;BME280;7947;48.834;9.132;2022-09-09T10:58:47;97839.94;;;24.72;42.21
15694;BME280;7947;48.834;9.132;2022-09-09T11:01:55;97841.25;;;24.52;43.68
15694;BME280;7947;48.834;9.132;2022-09-09T11:05:14;97846.47;;;24.05;45.41
15694;BME280;7947;48.834;9.132;2022-09-09T11:08:27;97871.44;;;23.55;46.22
15694;BME280;7947;48.834;9.132;2022-09-09T11:11:42;97902.94;;;23.03;49.83
15694;BME280;7947;48.834;9.132;2022-09-09T11:14:53;97898.06;;;22.39;56.81
15694;BME280;7947;48.834;9.132;2022-09-09T11:18:05;97888.53;;;21.83;60.39
15694;BME280;7947;48.834;9.132;2022-09-09T11:21:19;97870.63;;;21.23;64.42
15694;BME280;7947;48.834;9.132;2022-09-09T11:24:35;97889.63;;;20.92;65.23
15694;BME280;7947;48.834;9.132;2022-09-09T11:27:54;97901.94;;;20.74;68.21
15694;BME280;7947;48.834;9.132;2022-09-09T11:31:17;97903.34;;;20.56;64.13
15694;BME280;7947;48.834;9.132;2022-09-09T11:34:36;97906.22;;;20.47;63.23
15694;BME280;7947;48.834;9.132;2022-09-09T11:38:14;97909.63;;;20.44;63.57
15694;BME280;7947;48.834;9.132;2022-09-09T11:41:22;97912.13;;;20.49;64.24
15694;BME280;7947;48.834;9.132;2022-09-09T11:44:30;97913.69;;;20.50;62.48
15694;BME280;7947;48.834;9.132;2022-09-09T11:47:37;97916.53;;;20.54;59.43
15694;BME280;7947;48.834;9.132;2022-09-09T11:50:45;97899.63;;;20.48;59.10
15694;BME280;7947;48.834;9.132;2022-09-09T11:53:59;97894.53;;;20.47;60.00
15694;BME280;7947;48.834;9.132;2022-09-09T11:57:23;97893.81;;;20.50;58.58
15694;BME280;7947;48.834;9.132;2022-09-09T12:00:34;97883.59;;;20.59;59.17
15694;BME280;7947;48.834;9.132;2022-09-09T12:03:43;97868.09;;;20.75;58.49
15694;BME280;7947;48.834;9.132;2022-09-09T12:06:57;97865.94;;;20.81;59.08
15694;BME280;7947;48.834;9.132;2022-09-09T12:10:28;97868.41;;;21.13;57.23
15694;BME280;7947;48.834;9.132;2022-09-09T12:13:35;97862.19;;;21.60;57.89
15694;BME280;7947;48.834;9.132;2022-09-09T12:16:44;97863.97;;;22.33;56.27
15694;BME280;7947;48.834;9.132;2022-09-09T12:20:10;97865.06;;;22.86;54.05
15694;BME280;7947;48.834;9.132;2022-09-09T12:23:35;97860.94;;;23.34;52.09
15694;BME280;7947;48.834;9.132;2022-09-09T12:26:52;97859.28;;;23.75;48.76
15694;BME280;7947;48.834;9.132;2022-09-09T12:30:07;97854.84;;;24.15;48.05
15694;BME280;7947;48.834;9.132;2022-09-09T12:33:39;97859.00;;;24.32;45.64
15694;BME280;7947;48.834;9.132;2022-09-09T12:36:59;97865.06;;;24.45;43.71
15694;BME280;7947;48.834;9.132;2022-09-09T12:40:32;97856.56;;;24.57;41.35
15694;BME280;7947;48.834;9.132;2022-09-09T12:44:09;97865.84;;;24.49;42.37
15694;BME280;7947;48.834;9.132;2022-09-09T12:47:31;97850.19;;;24.75;43.69
15694;BME280;7947;48.834;9.132;2022-09-09T12:50:59;97838.81;;;24.73;43.17
15694;BME280;7947;48.834;9.132;2022-09-09T12:54:20;97839.84;;;24.65;42.26
15694;BME280;7947;48.834;9.132;2022-09-09T12:57:37;97837.25;;;24.76;41.54
15694;BME280;7947;48.834;9.132;2022-09-09T13:01:32;97832.78;;;24.97;42.87
15694;BME280;7947;48.834;9.132;2022-09-09T13:04:43;97827.91;;;25.17;40.79
15694;BME280;7947;48.834;9.132;2022-09-09T13:07:48;97834.38;;;24.98;40.51
15694;BME280;7947;48.834;9.132;2022-09-09T13:10:53;97826.28;;;24.76;41.86
15694;BME280;7947;48.834;9.132;2022-09-09T13:14:03;97822.75;;;25.12;42.17
15694;BME280;7947;48.834;9.132;2022-09-09T13:17:19;97818.41;;;25.48;39.90
15694;BME280;7947;48.834;9.132;2022-09-09T13:20:23;97816.59;;;25.66;39.54
15694;BME280;7947;48.834;9.132;2022-09-09T13:23:29;97818.06;;;25.53;39.20
15694;BME280;7947;48.834;9.132;2022-09-09T13:26:34;97821.63;;;25.57;40.03
15694;BME280;7947;48.834;9.132;2022-09-09T13:29:37;97811.50;;;25.64;40.16
15694;BME280;7947;48.834;9.132;2022-09-09T13:32:43;97810.38;;;25.72;41.61
15694;BME280;7947;48.834;9.132;2022-09-09T13:35:48;97826.13;;;25.82;40.16
15694;BME280;7947;48.834;9.132;2022-09-09T13:38:56;97804.09;;;25.72;38.83
15694;BME280;7947;48.834;9.132;2022-09-09T13:42:01;97807.25;;;25.74;39.75
15694;BME280;7947;48.834;9.132;2022-09-09T13:45:14;97810.13;;;25.44;40.36
15694;BME280;7947;48.834;9.132;2022-09-09T13:48:19;97800.56;;;25.28;40.27
15694;BME280;7947;48.834;9.132;2022-09-09T13:51:30;97784.97;;;24.95;41.53
15694;BME280;7947;48.834;9.132;2022-09-09T13:54:34;97789.03;;;24.75;41.65
15694;BME280;7947;48.834;9.132;2022-09-09T13:57:37;97790.13;;;24.70;40.05
15694;BME280;7947;48.834;9.132;2022-09-09T14:00:40;97785.06;;;25.05;38.20
15694;BME280;7947;48.834;9.132;2022-09-09T14:03:44;97785.19;;;25.20;37.28
15694;BME280;7947;48.834;9.132;2022-09-09T14:06:49;97790.91;;;25.44;36.81
15694;BME280;7947;48.834;9.132;2022-09-09T14:09:52;97791.34;;;25.50;37.71
15694;BME280;7947;48.834;9.132;2022-09-09T14:12:55;97798.06;;;25.52;37.66
15694;BME280;7947;48.834;9.132;2022-09-09T14:15:57;97791.19;;;25.79;37.23
15694;BME280;7947;48.834;9.132;2022-09-09T14:19:02;97784.53;;;26.56;35.04
15694;BME280;7947;48.834;9.132;2022-09-09T14:22:04;97784.00;;;27.40;33.96
15694;BME280;7947;48.834;9.132;2022-09-09T14:25:07;97789.81;;;27.07;32.84
15694;BME280;7947;48.834;9.132;2022-09-09T14:28:11;97783.88;;;26.91;33.16
15694;BME280;7947;48.834;9.132;2022-09-09T14:31:14;97777.25;;;27.06;33.18
15694;BME280;7947;48.834;9.132;2022-09-09T14:34:20;97789.78;;;26.89;33.09
15694;BME280;7947;48.834;9.132;2022-09-09T14:37:22;97785.84;;;26.04;34.44
15694;BME280;7947;48.834;9.132;2022-09-09T14:40:25;97796.00;;;25.42;35.38
15694;BME280;7947;48.834;9.132;2022-09-09T14:43:28;97791.84;;;25.19;35.63
15694;BME280;7947;48.834;9.132;2022-09-09T14:46:31;97787.69;;;25.35;35.96
15694;BME280;7947;48.834;9.132;2022-09-09T14:49:36;97786.06;;;25.74;35.39
15694;BME280;7947;48.834;9.132;2022-09-09T14:52:43;97780.56;;;25.74;35.51
15694;BME280;7947;48.834;9.132;2022-09-09T14:55:45;97794.88;;;25.47;36.49
15694;BME280;7947;48.834;9.132;2022-09-09T14:58:48;97788.00;;;25.27;36.59
15694;BME280;7947;48.834;9.132;2022-09-09T15:01:52;97792.97;;;25.14;36.54
15694;BME280;7947;48.834;9.132;2022-09-09T15:04:56;97800.81;;;24.75;37.30
15694;BME280;7947;48.834;9.132;2022-09-09T15:07:59;97804.06;;;24.55;37.58
15694;BME280;7947;48.834;9.132;2022-09-09T15:11:03;97808.34;;;24.23;38.14
15694;BME280;7947;48.834;9.132;2022-09-09T15:14:08;97806.28;;;23.90;38.57
15694;BME280;7947;48.834;9.132;2022-09-09T15:17:11;97803.34;;;23.76;38.04
15694;BME280;7947;48.834;9.132;2022-09-09T15:20:16;97808.00;;;23.49;39.01
15694;BME280;7947;48.834;9.132;2022-09-09T15:23:18;97812.72;;;23.29;39.47
15694;BME280;7947;48.834;9.132;2022-09-09T15:26:21;97807.81;;;23.16;40.27
15694;BME280;7947;48.834;9.132;2022-09-09T15:29:25;97804.84;;;23.05;40.23
15694;BME280;7947;48.834;9.132;2022-09-09T15:32:28;97804.81;;;23.02;40.89
15694;BME280;7947;48.834;9.132;2022-09-09T15:35:32;97803.50;;;22.96;41.28
15694;BME280;7947;48.834;9.132;2022-09-09T15:38:34;97797.63;;;22.94;40.96
15694;BME280;7947;48.834;9.132;2022-09-09T15:41:38;97799.81;;;22.85;42.29
15694;BME280;7947;48.834;9.132;2022-09-09T15:44:41;97807.16;;;22.81;42.25
15694;BME280;7947;48.834;9.132;2022-09-09T15:47:44;97814.41;;;22.73;43.16
15694;BME280;7947;48.834;9.132;2022-09-09T15:51:01;97811.94;;;22.65;42.48
15694;BME280;7947;48.834;9.132;2022-09-09T15:54:25;97816.44;;;22.57;43.77
15694;BME280;7947;48.834;9.132;2022-09-09T15:57:28;97808.81;;;22.47;43.48
15694;BME280;7947;48.834;9.132;2022-09-09T16:00:31;97805.03;;;22.36;43.70
15694;BME280;7947;48.834;9.132;2022-09-09T16:03:36;97800.81;;;22.38;43.89
15694;BME280;7947;48.834;9.132;2022-09-09T16:06:47;97813.47;;;22.27;44.17
15694;BME280;7947;48.834;9.132;2022-09-09T16:09:49;97817.34;;;22.26;44.48
15694;BME280;7947;48.834;9.132;2022-09-09T16:12:54;97825.91;;;22.25;44.36
15694;BME280;7947;48.834;9.132;2022-09-09T16:15:57;97832.44;;;22.20;44.40
15694;BME280;7947;48.834;9.132;2022-09-09T16:19:03;97834.47;;;22.23;44.45
15694;BME280;7947;48.834;9.132;2022-09-09T16:22:07;97863.34;;;22.24;44.82
15694;BME280;7947;48.834;9.132;2022-09-09T16:25:10;97870.38;;;22.06;43.65
15694;BME280;7947;48.834;9.132;2022-09-09T16:28:13;97868.78;;;21.58;43.78
15694;BME280;7947;48.834;9.132;2022-09-09T16:31:19;97869.38;;;21.21;45.47
15694;BME280;7947;48.834;9.132;2022-09-09T16:34:22;97869.53;;;20.85;46.76
15694;BME280;7947;48.834;9.132;2022-09-09T16:37:27;97882.00;;;20.58;48.01
15694;BME280;7947;48.834;9.132;2022-09-09T16:40:33;97880.81;;;20.43;48.75
15694;BME280;7947;48.834;9.132;2022-09-09T16:43:36;97869.84;;;20.28;48.50
15694;BME280;7947;48.834;9.132;2022-09-09T16:46:41;97890.72;;;20.24;48.24
15694;BME280;7947;48.834;9.132;2022-09-09T16:49:44;97884.47;;;20.23;47.88
15694;BME280;7947;48.834;9.132;2022-09-09T16:52:48;97890.72;;;20.24;51.01